createdAt,value
2017-11-19T00:00:52.177Z,100756.06
2017-11-19T00:03:27.597Z,100752.59
2017-11-19T00:06:01.960Z,100752.25
2017-11-19T00:08:36.665Z,100758.04
2017-11-19T00:11:11.577Z,100746.33
2017-11-19T00:13:46.457Z,100741.64
2017-11-19T00:16:20.929Z,100737.29
2017-11-19T00:18:56.013Z,100735.91
2017-11-19T00:21:31.133Z,100733.47
2017-11-19T00:24:05.841Z,100719.45
2017-11-19T00:26:40.793Z,100730.31
2017-11-19T00:29:15.093Z,100724.89
2017-11-19T00:31:49.647Z,100724.89
2017-11-19T00:34:24.804Z,100717.02
2017-11-19T00:36:59.757Z,100724.68
2017-11-19T00:39:34.108Z,100727.76
2017-11-19T00:42:09.241Z,100707.40
2017-11-19T00:44:44.021Z,100729.48
2017-11-19T00:47:18.861Z,100731.45
2017-11-19T00:49:53.544Z,100729.39
2017-11-19T00:52:28.325Z,100734.77
2017-11-19T00:55:03.137Z,100730.12
2017-11-19T00:57:37.961Z,100726.80
2017-11-19T01:00:12.714Z,100720.89
2017-11-19T01:02:47.795Z,100717.33
2017-11-19T01:05:23.132Z,100708.81
2017-11-19T01:07:57.895Z,100709.41
2017-11-19T01:10:32.829Z,100699.73
2017-11-19T01:13:07.909Z,100702.30
2017-11-19T01:15:42.609Z,100687.09
2017-11-19T01:18:17.743Z,100691.40
2017-11-19T01:20:52.413Z,100691.25
2017-11-19T01:23:27.090Z,100694.61
2017-11-19T01:26:01.969Z,100694.25
2017-11-19T01:28:36.818Z,100695.90
2017-11-19T01:31:11.378Z,100704.34
2017-11-19T01:33:45.969Z,100703.89
2017-11-19T01:36:20.502Z,100703.36
2017-11-19T01:38:55.183Z,100703.25
2017-11-19T01:41:30.319Z,100712.78
2017-11-19T01:44:04.785Z,100708.09
2017-11-19T01:46:39.697Z,100711.30
2017-11-19T01:49:14.382Z,100712.73
2017-11-19T01:51:49.076Z,100713.42
2017-11-19T01:54:23.493Z,100707.70
2017-11-19T01:56:58.461Z,100711.30
2017-11-19T01:59:33.465Z,100712.03
2017-11-19T02:02:08.337Z,100704.87
2017-11-19T02:04:43.861Z,100703.45
2017-11-19T02:07:19.193Z,100710.08
2017-11-19T02:09:53.929Z,100710.61
2017-11-19T02:12:28.312Z,100697.48
2017-11-19T02:15:03.428Z,100712.93
2017-11-19T02:17:38.114Z,100702.21
2017-11-19T02:20:13.904Z,100698.45
2017-11-19T02:22:48.252Z,100689.47
2017-11-19T02:25:23.161Z,100694.60
2017-11-19T02:27:57.893Z,100693.52
2017-11-19T02:30:32.762Z,100690.12
2017-11-19T02:33:07.457Z,100676.73
2017-11-19T02:35:42.173Z,100682.86
2017-11-19T02:38:17.319Z,100676.43
2017-11-19T02:40:52.063Z,100681.22
2017-11-19T02:43:26.849Z,100668.84
2017-11-19T02:46:01.667Z,100661.92
2017-11-19T02:48:36.497Z,100668.63
2017-11-19T02:51:11.340Z,100671.23
2017-11-19T02:53:46.109Z,100676.23
2017-11-19T02:56:20.821Z,100666.64
2017-11-19T02:58:55.427Z,100666.24
2017-11-19T03:01:31.459Z,100663.33
2017-11-19T03:04:05.901Z,100666.30
2017-11-19T03:06:41.789Z,100661.00
2017-11-19T03:09:16.375Z,100649.75
2017-11-19T03:11:51.346Z,100656.51
2017-11-19T03:14:26.387Z,100657.64
2017-11-19T03:17:01.129Z,100662.81
2017-11-19T03:19:35.905Z,100652.44
2017-11-19T03:22:10.862Z,100646.66
2017-11-19T03:24:45.286Z,100643.14
2017-11-19T03:27:20.212Z,100657.95
2017-11-19T03:29:54.894Z,100654.30
2017-11-19T03:32:29.797Z,100652.91
2017-11-19T03:35:04.897Z,100658.30
2017-11-19T03:37:40.127Z,100654.36
2017-11-19T03:40:15.133Z,100660.87
2017-11-19T03:42:49.820Z,100656.02
2017-11-19T03:45:24.857Z,100639.67
2017-11-19T03:47:59.604Z,100648.95
2017-11-19T03:50:33.997Z,100653.95
2017-11-19T03:53:09.214Z,100648.61
2017-11-19T03:55:43.984Z,100644.95
2017-11-19T03:58:18.917Z,100638.61
2017-11-19T04:00:53.869Z,100644.05
2017-11-19T04:03:28.773Z,100632.16
2017-11-19T04:06:03.693Z,100651.41
2017-11-19T04:08:38.462Z,100644.02
2017-11-19T04:11:13.403Z,100640.27
2017-11-19T04:13:48.209Z,100634.53
2017-11-19T04:16:23.157Z,100633.05
2017-11-19T04:18:57.845Z,100638.05
2017-11-19T04:21:32.565Z,100629.36
2017-11-19T04:24:07.325Z,100627.24
2017-11-19T04:26:41.789Z,100648.58
2017-11-19T04:29:16.678Z,100649.21
2017-11-19T04:31:51.073Z,100647.98
2017-11-19T04:34:26.005Z,100661.63
2017-11-19T04:37:00.737Z,100658.66
2017-11-19T04:39:35.463Z,100653.80
2017-11-19T04:42:10.193Z,100645.31
2017-11-19T04:44:44.925Z,100647.73
2017-11-19T04:47:19.693Z,100639.62
2017-11-19T04:49:54.305Z,100639.42
2017-11-19T04:52:29.000Z,100624.49
2017-11-19T04:55:03.761Z,100629.57
2017-11-19T04:57:38.153Z,100628.49
2017-11-19T05:00:13.101Z,100625.72
2017-11-19T05:02:47.817Z,100631.48
2017-11-19T05:05:22.569Z,100636.80
2017-11-19T05:07:57.170Z,100637.16
2017-11-19T05:10:32.294Z,100645.41
2017-11-19T05:13:06.880Z,100645.20
2017-11-19T05:15:41.594Z,100656.81
2017-11-19T05:18:16.625Z,100657.55
2017-11-19T05:20:51.469Z,100661.46
2017-11-19T05:23:26.395Z,100651.98
2017-11-19T05:26:01.322Z,100645.70
2017-11-19T05:28:36.268Z,100637.50
2017-11-19T05:31:11.156Z,100632.95
2017-11-19T05:33:45.929Z,100638.88
2017-11-19T05:36:20.785Z,100623.35
2017-11-19T05:38:55.125Z,100611.12
2017-11-19T05:41:30.075Z,100616.59
2017-11-19T05:44:04.699Z,100604.27
2017-11-19T05:46:39.538Z,100620.07
2017-11-19T05:49:14.470Z,100622.23
2017-11-19T05:51:49.314Z,100619.52
2017-11-19T05:54:24.157Z,100623.08
2017-11-19T05:56:58.857Z,100628.47
2017-11-19T05:59:33.769Z,100638.70
2017-11-19T06:02:08.564Z,100651.69
2017-11-19T06:04:43.393Z,100648.62
2017-11-19T06:07:17.973Z,100654.01
2017-11-19T06:09:52.657Z,100660.42
2017-11-19T06:12:27.259Z,100648.77
2017-11-19T06:15:02.078Z,100646.39
2017-11-19T06:17:36.886Z,100650.94
2017-11-19T06:20:11.732Z,100649.64
2017-11-19T06:22:46.602Z,100654.34
2017-11-19T06:25:21.448Z,100652.91
2017-11-19T06:27:56.249Z,100661.30
2017-11-19T06:30:30.617Z,100641.75
2017-11-19T06:33:05.585Z,100654.34
2017-11-19T06:35:40.529Z,100654.19
2017-11-19T06:38:15.337Z,100663.28
2017-11-19T06:40:51.213Z,100658.45
2017-11-19T06:43:25.916Z,100665.11
2017-11-19T06:46:00.333Z,100650.05
2017-11-19T06:48:34.941Z,100643.83
2017-11-19T06:51:09.522Z,100637.36
2017-11-19T06:53:44.457Z,100636.45
2017-11-19T06:56:19.181Z,100651.13
2017-11-19T06:58:54.013Z,100659.42
2017-11-19T07:01:28.857Z,100653.73
2017-11-19T07:04:03.779Z,100653.30
2017-11-19T07:06:38.390Z,100660.91
2017-11-19T07:09:13.170Z,100655.41
2017-11-19T07:11:48.066Z,100660.61
2017-11-19T07:14:22.829Z,100659.12
2017-11-19T07:16:57.749Z,100660.64
2017-11-19T07:19:32.451Z,100667.66
2017-11-19T07:22:06.881Z,100662.81
2017-11-19T07:24:41.729Z,100670.86
2017-11-19T07:27:16.222Z,100674.27
2017-11-19T07:29:51.029Z,100663.35
2017-11-19T07:32:25.418Z,100660.81
2017-11-19T07:35:00.414Z,100661.94
2017-11-19T07:37:34.988Z,100662.30
2017-11-19T07:40:09.846Z,100664.98
2017-11-19T07:42:44.789Z,100645.69
2017-11-19T07:45:19.420Z,100669.70
2017-11-19T07:47:54.241Z,100654.53
2017-11-19T07:50:28.758Z,100667.63
2017-11-19T07:53:03.257Z,100662.08
2017-11-19T07:55:38.441Z,100656.98
2017-11-19T07:58:13.864Z,100646.06
2017-11-19T08:00:47.927Z,100653.14
2017-11-19T08:03:22.693Z,100666.33
2017-11-19T08:05:57.049Z,100675.34
2017-11-19T08:08:32.209Z,100678.64
2017-11-19T08:11:06.932Z,100679.02
2017-11-19T08:13:41.761Z,100667.37
2017-11-19T08:16:16.608Z,100669.05
2017-11-19T08:18:51.530Z,100664.66
2017-11-19T08:21:26.738Z,100655.35
2017-11-19T08:24:01.282Z,100651.83
2017-11-19T08:26:36.273Z,100658.82
2017-11-19T08:29:11.085Z,100664.89
2017-11-19T08:31:45.981Z,100664.85
2017-11-19T08:34:20.721Z,100651.28
2017-11-19T08:36:55.433Z,100649.63
2017-11-19T08:39:30.246Z,100668.56
2017-11-19T08:42:04.585Z,100670.16
2017-11-19T08:44:39.601Z,100680.22
2017-11-19T08:47:14.473Z,100667.28
2017-11-19T08:49:49.164Z,100668.72
2017-11-19T08:52:23.905Z,100676.00
2017-11-19T08:54:58.793Z,100676.45
2017-11-19T08:57:33.696Z,100673.34
2017-11-19T09:00:08.337Z,100665.50
2017-11-19T09:02:43.522Z,100679.43
2017-11-19T09:05:18.705Z,100688.80
2017-11-19T09:07:53.613Z,100686.62
2017-11-19T09:10:28.535Z,100680.00
2017-11-19T09:13:03.257Z,100678.94
2017-11-19T09:15:38.229Z,100689.33
2017-11-19T09:18:13.345Z,100690.84
2017-11-19T09:20:48.249Z,100695.74
2017-11-19T09:23:23.272Z,100687.94
2017-11-19T09:25:58.133Z,100684.38
2017-11-19T09:28:32.902Z,100687.92
2017-11-19T09:31:07.781Z,100685.52
2017-11-19T09:33:42.629Z,100685.85
2017-11-19T09:36:17.370Z,100692.70
2017-11-19T09:38:52.569Z,100705.13
2017-11-19T09:41:27.461Z,100702.16
2017-11-19T09:44:02.369Z,100700.62
2017-11-19T09:46:37.486Z,100686.08
2017-11-19T09:49:12.853Z,100694.66
2017-11-19T09:51:47.705Z,100691.37
2017-11-19T09:54:22.638Z,100691.70
2017-11-19T09:56:57.689Z,100698.06
2017-11-19T09:59:32.496Z,100703.02
2017-11-19T10:02:07.300Z,100702.63
2017-11-19T10:04:41.993Z,100705.84
2017-11-19T10:07:16.977Z,100708.45
2017-11-19T10:09:51.706Z,100705.94
2017-11-19T10:12:26.514Z,100701.81
2017-11-19T10:15:01.285Z,100704.11
2017-11-19T10:17:36.301Z,100706.31
2017-11-19T10:20:11.045Z,100712.09
2017-11-19T10:22:45.970Z,100711.22
2017-11-19T10:25:21.030Z,100710.03
2017-11-19T10:27:56.013Z,100712.59
2017-11-19T10:30:30.881Z,100708.78
2017-11-19T10:33:05.790Z,100719.49
2017-11-19T10:35:40.932Z,100716.70
2017-11-19T10:38:15.653Z,100722.67
2017-11-19T10:40:50.623Z,100718.03
2017-11-19T10:43:25.549Z,100725.34
2017-11-19T10:46:00.750Z,100712.80
2017-11-19T10:48:35.354Z,100733.81
2017-11-19T10:51:10.056Z,100730.88
2017-11-19T10:53:45.061Z,100719.63
2017-11-19T10:56:19.898Z,100718.42
2017-11-19T10:58:54.922Z,100724.87
2017-11-19T11:01:29.589Z,100729.80
2017-11-19T11:04:04.379Z,100716.91
2017-11-19T11:06:39.244Z,100716.80
2017-11-19T11:09:14.475Z,100724.48
2017-11-19T11:11:50.204Z,100723.58
2017-11-19T11:14:25.434Z,100724.60
2017-11-19T11:17:00.385Z,100711.64
2017-11-19T11:19:35.105Z,100719.66
2017-11-19T11:22:09.790Z,100705.30
2017-11-19T11:24:44.209Z,100716.20
2017-11-19T11:27:19.328Z,100722.74
2017-11-19T11:29:54.129Z,100729.88
2017-11-19T11:32:28.945Z,100739.20
2017-11-19T11:35:03.716Z,100720.81
2017-11-19T11:37:38.406Z,100721.14
2017-11-19T11:40:12.841Z,100713.55
2017-11-19T11:42:47.967Z,100704.61
2017-11-19T11:45:23.016Z,100708.73
2017-11-19T11:47:57.774Z,100716.52
2017-11-19T11:50:32.796Z,100707.48
2017-11-19T11:53:07.805Z,100718.22
2017-11-19T11:55:42.574Z,100718.58
2017-11-19T11:58:17.196Z,100724.11
2017-11-19T12:00:52.685Z,100716.09
2017-11-19T12:03:27.436Z,100735.26
2017-11-19T12:06:02.421Z,100732.55
2017-11-19T12:08:37.525Z,100746.83
2017-11-19T12:11:12.446Z,100753.31
2017-11-19T12:13:47.381Z,100753.05
2017-11-19T12:16:22.249Z,100755.50
2017-11-19T12:18:57.064Z,100753.49
2017-11-19T12:21:32.285Z,100759.41
2017-11-19T12:24:07.314Z,100757.28
2017-11-19T12:26:42.309Z,100763.30
2017-11-19T12:29:16.837Z,100776.24
2017-11-19T12:31:51.685Z,100776.08
2017-11-19T12:34:26.766Z,100786.07
2017-11-19T12:37:01.700Z,100778.39
2017-11-19T12:39:36.733Z,100785.60
2017-11-19T12:42:11.775Z,100776.91
2017-11-19T12:44:46.466Z,100778.37
2017-11-19T12:47:21.241Z,100789.84
2017-11-19T12:49:56.201Z,100812.59
2017-11-19T12:52:30.898Z,100799.68
2017-11-19T12:55:05.885Z,100798.19
2017-11-19T12:57:40.725Z,100798.91
2017-11-19T13:00:15.149Z,100793.70
2017-11-19T13:02:50.529Z,100794.16
2017-11-19T13:05:25.421Z,100794.58
2017-11-19T13:08:00.676Z,100786.66
2017-11-19T13:10:35.029Z,100793.74
2017-11-19T13:13:10.343Z,100781.59
2017-11-19T13:15:45.254Z,100786.65
2017-11-19T13:18:19.917Z,100771.80
2017-11-19T13:20:54.861Z,100774.55
2017-11-19T13:23:29.953Z,100780.30
2017-11-19T13:26:04.790Z,100773.00
2017-11-19T13:28:39.969Z,100777.92
2017-11-19T13:31:14.877Z,100776.46
2017-11-19T13:33:50.221Z,100779.64
2017-11-19T13:36:25.258Z,100765.87
2017-11-19T13:39:00.238Z,100761.34
2017-11-19T13:41:35.422Z,100759.63
2017-11-19T13:44:09.534Z,100763.89
2017-11-19T13:46:44.694Z,100766.28
2017-11-19T13:49:19.613Z,100767.61
2017-11-19T13:51:54.328Z,100765.14
2017-11-19T13:54:29.276Z,100767.39
2017-11-19T13:57:04.029Z,100781.78
2017-11-19T13:59:39.035Z,100781.05
2017-11-19T14:02:14.094Z,100766.30
2017-11-19T14:04:48.814Z,100775.11
2017-11-19T14:07:23.845Z,100781.62
2017-11-19T14:09:58.848Z,100777.20
2017-11-19T14:12:33.624Z,100776.45
2017-11-19T14:15:08.855Z,100790.47
2017-11-19T14:17:44.208Z,100788.72
2017-11-19T14:20:19.133Z,100796.72
2017-11-19T14:22:54.381Z,100812.41
2017-11-19T14:25:29.773Z,100812.94
2017-11-19T14:28:04.850Z,100818.66
2017-11-19T14:30:39.736Z,100809.66
2017-11-19T14:33:14.497Z,100810.05
2017-11-19T14:35:49.369Z,100810.48
2017-11-19T14:38:24.185Z,100815.41
2017-11-19T14:40:58.936Z,100821.02
2017-11-19T14:43:33.643Z,100823.73
2017-11-19T14:46:08.337Z,100833.50
2017-11-19T14:48:43.327Z,100825.39
2017-11-19T14:51:18.137Z,100834.18
2017-11-19T14:53:53.073Z,100827.37
2017-11-19T14:56:28.274Z,100838.31
2017-11-19T14:59:02.954Z,100828.38
2017-11-19T15:01:37.849Z,100832.85
2017-11-19T15:04:12.820Z,100842.52
2017-11-19T15:06:47.606Z,100840.27
2017-11-19T15:09:22.745Z,100839.72
2017-11-19T15:11:57.505Z,100830.66
2017-11-19T15:14:32.869Z,100851.17
2017-11-19T15:17:08.192Z,100840.91
2017-11-19T15:19:43.092Z,100847.37
2017-11-19T15:22:17.851Z,100846.24
2017-11-19T15:24:52.627Z,100849.53
2017-11-19T15:27:27.513Z,100856.51
2017-11-19T15:30:02.413Z,100862.22
2017-11-19T15:32:37.381Z,100862.72
2017-11-19T15:35:12.289Z,100867.84
2017-11-19T15:37:47.329Z,100856.62
2017-11-19T15:40:22.393Z,100851.88
2017-11-19T15:42:57.305Z,100866.63
2017-11-19T15:45:32.854Z,100878.34
2017-11-19T15:48:08.085Z,100870.02
2017-11-19T15:50:43.153Z,100870.70
2017-11-19T15:53:18.065Z,100872.78
2017-11-19T15:55:52.889Z,100890.59
2017-11-19T15:58:27.848Z,100883.06
2017-11-19T16:01:02.664Z,100887.27
2017-11-19T16:03:37.498Z,100885.27
2017-11-19T16:06:12.323Z,100893.36
2017-11-19T16:08:48.760Z,100903.25
2017-11-19T16:11:23.400Z,100899.05
2017-11-19T16:13:58.356Z,100902.45
2017-11-19T16:16:33.196Z,100908.27
2017-11-19T16:19:07.994Z,100913.12
2017-11-19T16:21:43.145Z,100922.58
2017-11-19T16:24:17.872Z,100919.95
2017-11-19T16:26:52.733Z,100928.20
2017-11-19T16:29:27.321Z,100921.29
2017-11-19T16:32:02.485Z,100923.34
2017-11-19T16:34:37.637Z,100929.09
2017-11-19T16:37:12.818Z,100931.45
2017-11-19T16:39:47.856Z,100931.31
2017-11-19T16:42:22.672Z,100925.67
2017-11-19T16:44:57.501Z,100925.36
2017-11-19T16:47:32.381Z,100934.33
2017-11-19T16:50:07.110Z,100939.57
2017-11-19T16:52:42.264Z,100929.19
2017-11-19T16:55:17.061Z,100943.31
2017-11-19T16:57:51.917Z,100949.80
2017-11-19T17:00:27.068Z,100952.85
2017-11-19T17:03:01.897Z,100953.03
2017-11-19T17:05:36.853Z,100959.89
2017-11-19T17:08:12.272Z,100960.35
2017-11-19T17:10:47.316Z,100959.57
2017-11-19T17:13:22.229Z,100970.00
2017-11-19T17:15:57.264Z,100973.40
2017-11-19T17:18:32.290Z,100974.02
2017-11-19T17:21:07.259Z,100971.16
2017-11-19T17:23:41.959Z,100974.17
2017-11-19T17:26:16.869Z,100980.75
2017-11-19T17:28:51.826Z,100988.50
2017-11-19T17:31:26.681Z,100983.07
2017-11-19T17:34:01.466Z,100975.04
2017-11-19T17:36:36.304Z,100983.66
2017-11-19T17:39:11.367Z,100986.61
2017-11-19T17:41:46.407Z,100994.47
2017-11-19T17:44:21.610Z,100998.39
2017-11-19T17:46:56.258Z,101022.70
2017-11-19T17:49:31.208Z,101034.00
2017-11-19T17:52:06.232Z,101026.38
2017-11-19T17:54:40.857Z,101025.84
2017-11-19T17:57:16.242Z,101034.99
2017-11-19T17:59:51.043Z,101033.48
2017-11-19T18:02:26.249Z,101038.05
2017-11-19T18:05:01.081Z,101035.97
2017-11-19T18:07:37.957Z,101030.76
2017-11-19T18:10:12.805Z,101043.75
2017-11-19T18:12:47.862Z,101033.34
2017-11-19T18:15:22.800Z,101033.05
2017-11-19T18:17:57.518Z,101036.38
2017-11-19T18:20:32.393Z,101035.64
2017-11-19T18:23:07.334Z,101045.50
2017-11-19T18:25:41.803Z,101050.70
2017-11-19T18:28:17.041Z,101054.15
2017-11-19T18:30:51.974Z,101065.62
2017-11-19T18:33:39.325Z,101078.38
2017-11-19T18:36:14.623Z,101074.70
2017-11-19T18:38:52.342Z,101081.08
2017-11-19T18:41:27.461Z,101073.66
2017-11-19T18:44:02.405Z,101088.48
2017-11-19T18:46:38.255Z,101082.52
2017-11-19T18:49:13.320Z,101079.56
2017-11-19T18:51:47.989Z,101083.04
2017-11-19T18:54:23.669Z,101095.52
2017-11-19T18:56:58.689Z,101083.61
2017-11-19T18:59:33.378Z,101092.43
2017-11-19T19:02:08.769Z,101093.86
2017-11-19T19:04:43.500Z,101085.02
2017-11-19T19:07:18.332Z,101093.94
2017-11-19T19:09:53.276Z,101100.16
2017-11-19T19:12:28.610Z,101102.88
2017-11-19T19:15:03.252Z,101110.22
2017-11-19T19:17:38.377Z,101115.78
2017-11-19T19:20:17.754Z,101109.78
2017-11-19T19:22:53.120Z,101111.81
2017-11-19T19:25:28.522Z,101118.62
2017-11-19T19:28:04.542Z,101120.64
2017-11-19T19:30:39.480Z,101119.51
2017-11-19T19:33:14.657Z,101123.56
2017-11-19T19:35:49.545Z,101124.02
2017-11-19T19:38:24.324Z,101127.08
2017-11-19T19:40:59.225Z,101127.12
2017-11-19T19:43:34.064Z,101133.67
2017-11-19T19:46:08.805Z,101135.31
2017-11-19T19:48:43.736Z,101133.52
2017-11-19T19:51:18.437Z,101141.09
2017-11-19T19:53:53.245Z,101154.02
2017-11-19T19:56:28.034Z,101155.49
2017-11-19T19:59:03.158Z,101166.09
2017-11-19T20:01:38.002Z,101163.11
2017-11-19T20:04:13.033Z,101170.97
2017-11-19T20:06:47.986Z,101174.84
2017-11-19T20:09:22.720Z,101168.46
2017-11-19T20:11:57.621Z,101166.83
2017-11-19T20:14:32.473Z,101170.20
2017-11-19T20:17:07.401Z,101175.85
2017-11-19T20:19:42.301Z,101179.44
2017-11-19T20:22:17.371Z,101180.72
2017-11-19T20:24:51.637Z,101179.42
2017-11-19T20:27:26.965Z,101185.16
2017-11-19T20:30:03.205Z,101183.10
2017-11-19T20:32:38.037Z,101182.75
2017-11-19T20:35:13.045Z,101183.17
2017-11-19T20:37:47.969Z,101180.42
2017-11-19T20:40:23.101Z,101199.73
2017-11-19T20:42:57.901Z,101204.02
2017-11-19T20:45:32.980Z,101199.50
2017-11-19T20:48:07.806Z,101210.55
2017-11-19T20:50:42.377Z,101211.28
2017-11-19T20:53:17.380Z,101215.38
2017-11-19T20:55:52.295Z,101214.62
2017-11-19T20:58:26.972Z,101227.88
2017-11-19T21:01:02.488Z,101225.06
2017-11-19T21:03:37.416Z,101228.00
2017-11-19T21:06:12.241Z,101232.28
2017-11-19T21:08:47.727Z,101241.05
2017-11-19T21:11:22.800Z,101245.59
2017-11-19T21:13:57.655Z,101238.17
2017-11-19T21:16:32.604Z,101241.83
2017-11-19T21:19:07.520Z,101246.63
2017-11-19T21:21:42.564Z,101244.31
2017-11-19T21:24:17.398Z,101239.71
2017-11-19T21:26:52.112Z,101247.77
2017-11-19T21:29:27.278Z,101245.19
2017-11-19T21:32:02.100Z,101251.44
2017-11-19T21:34:37.025Z,101247.34
2017-11-19T21:37:11.876Z,101237.03
2017-11-19T21:39:46.585Z,101242.38
2017-11-19T21:42:21.864Z,101255.69
2017-11-19T21:44:56.848Z,101253.38
2017-11-19T21:47:31.881Z,101254.08
2017-11-19T21:50:06.774Z,101246.02
2017-11-19T21:52:41.641Z,101245.34
2017-11-19T21:55:16.562Z,101252.47
2017-11-19T21:57:50.998Z,101251.17
2017-11-19T22:00:26.184Z,101254.41
2017-11-19T22:03:01.009Z,101259.27
2017-11-19T22:05:35.929Z,101261.02
2017-11-19T22:08:10.845Z,101260.87
2017-11-19T22:10:45.217Z,101261.77
2017-11-19T22:13:20.425Z,101265.81
2017-11-19T22:15:55.140Z,101264.49
2017-11-19T22:18:29.961Z,101263.39
2017-11-19T22:21:05.151Z,101273.08
2017-11-19T22:23:40.037Z,101269.22
2017-11-19T22:26:15.169Z,101266.59
2017-11-19T22:28:50.046Z,101263.42
2017-11-19T22:31:25.100Z,101266.52
2017-11-19T22:34:00.096Z,101264.55
2017-11-19T22:36:34.881Z,101275.30
2017-11-19T22:39:09.885Z,101275.98
2017-11-19T22:41:45.018Z,101270.53
2017-11-19T22:44:19.945Z,101275.39
2017-11-19T22:46:54.910Z,101274.37
2017-11-19T22:49:29.828Z,101270.86
2017-11-19T22:52:04.268Z,101270.98
2017-11-19T22:54:39.349Z,101273.89
2017-11-19T22:57:14.209Z,101275.36
2017-11-19T22:59:49.058Z,101268.50
2017-11-19T23:02:24.169Z,101270.33
2017-11-19T23:04:59.012Z,101276.48
2017-11-19T23:07:34.037Z,101280.84
2017-11-19T23:10:08.925Z,101281.19
2017-11-19T23:12:43.600Z,101287.51
2017-11-19T23:15:18.529Z,101290.19
2017-11-19T23:17:53.213Z,101285.11
2017-11-19T23:20:27.904Z,101279.19
2017-11-19T23:23:02.694Z,101275.80
2017-11-19T23:25:37.584Z,101280.26
2017-11-19T23:28:12.440Z,101287.42
2017-11-19T23:30:47.077Z,101289.16
2017-11-19T23:33:22.277Z,101294.53
2017-11-19T23:35:57.100Z,101286.97
2017-11-19T23:38:31.980Z,101284.98
2017-11-19T23:41:06.756Z,101290.14
2017-11-19T23:43:41.736Z,101294.28
2017-11-19T23:46:16.588Z,101297.00
2017-11-19T23:48:51.345Z,101295.79
2017-11-19T23:51:26.474Z,101302.65
2017-11-19T23:54:01.697Z,101294.37
2017-11-19T23:56:36.572Z,101289.30
2017-11-19T23:59:11.458Z,101287.69
